Time;durP1;ratioP1;P1;durP2;ratioP2;P2;SDS_P1;SDS_P2;PMS_P1;PMS_P2;Temp;Humidity;BMP_temperature;BMP_pressure;BME280_temperature;BME280_humidity;BME280_pressure;Samples;Min_cycle;Max_cycle;Signal;HPM_P1;HPM_P2
2022/09/13 00:00:25;;;;;;;;;;;;;;;;;;5013166;28;19916;-62
2022/09/13 00:02:51;;;;;;;;;;;;;;;;;;5013163;28;19913;-62
2022/09/13 00:05:19;;;;;;;;;;;;;;;;;;5014420;28;19945;-62
2022/09/13 00:07:45;;;;;;;;;;;;;;;;;;5014439;28;19909;-62
2022/09/13 00:10:11;;;;;;;;;;;;;;;;;;5014214;28;19956;-62
2022/09/13 00:12:37;;;;;;;;;;;;;;;;;;5014343;28;19937;-62
2022/09/13 00:15:03;;;;;;;;;;;;;;;;;;5031212;28;19971;-62
2022/09/13 00:17:29;;;;;;;;;;;;;;;;;;5016193;28;19995;-62
2022/09/13 00:19:55;;;;;;;;;;;;;;;;;;5033969;28;19905;-62
2022/09/13 00:22:21;;;;;;;;;;;;;;;;;;5033837;28;19958;-62
2022/09/13 00:24:47;;;;;;;;;;;;;;;;;;5033808;28;19905;-62
2022/09/13 00:27:13;;;;;;;;;;;;;;;;;;5015990;28;19991;-62
2022/09/13 00:29:39;;;;;;;;;;;;;;;;;;5033168;28;20346;-62
2022/09/13 00:32:05;;;;;;;;;;;;;;;;;;5033686;28;19905;-62
2022/09/13 00:37:16;;;;;;;;;;;;;;;;;;5033401;28;20273;-62
2022/09/13 00:39:42;;;;;;;;;;;;;;;;;;5015916;28;20000;-62
2022/09/13 00:42:08;;;;;;;;;;;;;;;;;;5015819;28;20003;-62
2022/09/13 00:44:34;;;;;;;;;;;;;;;;;;5015796;28;19905;-62
2022/09/13 00:47:00;;;;;;;;;;;;;;;;;;5015794;28;19905;-62
2022/09/13 00:49:26;;;;;;;;;;;;;;;;;;5033432;28;19948;-62
2022/09/13 00:51:52;;;;;;;;;;;;;;;;;;5033445;28;20357;-62
2022/09/13 00:54:18;;;;;;;;;;;;;;;;;;5033783;28;19960;-62
2022/09/13 00:56:44;;;;;;;;;;;;;;;;;;5015682;28;19962;-62
2022/09/13 00:59:10;;;;;;;;;;;;;;;;;;5033455;28;19905;-62
2022/09/13 01:01:36;;;;;;;;;;;;;;;;;;5015606;28;19996;-62
2022/09/13 01:04:02;;;;;;;;;;;;;;;;;;5033387;28;19905;-62
2022/09/13 01:06:28;;;;;;;;;;;;;;;;;;5015626;28;19952;-61
2022/09/13 01:08:55;;;;;;;;;;;;;;;;;;5033356;28;19915;-62
2022/09/13 01:11:21;;;;;;;;;;;;;;;;;;5015636;28;19905;-62
2022/09/13 01:13:47;;;;;;;;;;;;;;;;;;5033153;28;19924;-62
2022/09/13 01:16:13;;;;;;;;;;;;;;;;;;5033266;28;19909;-61
2022/09/13 01:18:39;;;;;;;;;;;;;;;;;;5033246;28;19905;-61
2022/09/13 01:21:05;;;;;;;;;;;;;;;;;;5033193;28;19924;-61
2022/09/13 01:23:31;;;;;;;;;;;;;;;;;;5033208;28;19909;-61
2022/09/13 01:25:57;;;;;;;;;;;;;;;;;;5033173;28;19931;-62
2022/09/13 01:28:23;;;;;;;;;;;;;;;;;;5033437;28;19912;-62
2022/09/13 01:30:50;;;;;;;;;;;;;;;;;;5032745;28;19913;-62
2022/09/13 01:33:16;;;;;;;;;;;;;;;;;;5015422;28;19915;-62
2022/09/13 01:35:42;;;;;;;;;;;;;;;;;;5015274;28;20335;-62
2022/09/13 01:38:09;;;;;;;;;;;;;;;;;;5033333;28;19909;-62
2022/09/13 01:40:35;;;;;;;;;;;;;;;;;;5034285;28;19909;-62
2022/09/13 01:43:01;;;;;;;;;;;;;;;;;;5036815;28;19959;-62
2022/09/13 01:45:27;;;;;;;;;;;;;;;;;;5036714;28;19913;-62
2022/09/13 01:47:53;;;;;;;;;;;;;;;;;;5036589;28;19905;-61
2022/09/13 01:50:19;;;;;;;;;;;;;;;;;;5036579;28;19999;-62
2022/09/13 01:52:45;;;;;;;;;;;;;;;;;;5036665;28;19905;-62
2022/09/13 01:55:11;;;;;;;;;;;;;;;;;;5036624;28;19905;-62
2022/09/13 01:57:37;;;;;;;;;;;;;;;;;;5018707;28;19905;-61
2022/09/13 02:00:03;;;;;;;;;;;;;;;;;;5036525;28;19999;-61
2022/09/13 02:02:30;;;;;;;;;;;;;;;;;;5036441;28;19905;-61
2022/09/13 02:04:56;;;;;;;;;;;;;;;;;;5036398;28;20333;-61
2022/09/13 02:07:23;;;;;;;;;;;;;;;;;;5036263;28;20306;-61
2022/09/13 02:09:50;;;;;;;;;;;;;;;;;;5036302;28;19913;-61
2022/09/13 02:12:18;;;;;;;;;;;;;;;;;;5036314;28;19964;-61
2022/09/13 02:14:44;;;;;;;;;;;;;;;;;;5035510;28;20381;-62
2022/09/13 02:17:13;;;;;;;;;;;;;;;;;;5036080;28;19990;-62
2022/09/13 02:19:39;;;;;;;;;;;;;;;;;;5036214;28;19959;-61
2022/09/13 02:22:05;;;;;;;;;;;;;;;;;;5036075;28;19913;-61
2022/09/13 02:24:31;;;;;;;;;;;;;;;;;;5036012;28;19975;-62
2022/09/13 02:26:57;;;;;;;;;;;;;;;;;;5018479;28;19951;-61
2022/09/13 02:29:23;;;;;;;;;;;;;;;;;;5018101;28;19959;-62
2022/09/13 02:31:49;;;;;;;;;;;;;;;;;;5035642;28;19909;-62
2022/09/13 02:34:15;;;;;;;;;;;;;;;;;;5035827;28;19916;-61
2022/09/13 02:36:41;;;;;;;;;;;;;;;;;;5035499;28;19912;-61
2022/09/13 02:39:07;;;;;;;;;;;;;;;;;;5035822;28;19905;-61
2022/09/13 02:41:35;;;;;;;;;;;;;;;;;;5017925;28;20250;-61
2022/09/13 02:44:01;;;;;;;;;;;;;;;;;;5035701;28;19909;-61
2022/09/13 02:46:27;;;;;;;;;;;;;;;;;;5035635;28;19909;-62
2022/09/13 02:48:53;;;;;;;;;;;;;;;;;;5035619;28;19905;-61
2022/09/13 02:51:19;;;;;;;;;;;;;;;;;;5034943;28;19932;-61
2022/09/13 02:53:44;;;;;;;;;;;;;;;;;;5017960;28;19915;-62
2022/09/13 02:56:13;;;;;;;;;;;;;;;;;;5017592;28;19905;-61
2022/09/13 02:58:39;;;;;;;;;;;;;;;;;;5035326;28;19959;-61
2022/09/13 03:01:07;;;;;;;;;;;;;;;;;;5035371;28;19909;-61
2022/09/13 03:03:33;;;;;;;;;;;;;;;;;;5017483;28;19905;-62
2022/09/13 03:06:00;;;;;;;10.93;6.82;;;;;;;;;;5016960;28;20257;-62
2022/09/13 03:08:27;;;;;;;8.10;7.28;;;;;;;;;;5034750;28;20022;-61
2022/09/13 03:10:59;;;;;;;10.48;6.90;;;;;;;;;;5034717;28;20057;-62
2022/09/13 03:13:40;;;;;;;8.85;6.50;;;;;;;;;;5034434;28;20053;-62
2022/09/13 03:16:14;;;;;;;10.93;7.22;;;;;;;;;;5034679;28;20084;-62
2022/09/13 03:18:47;;;;;;;17.83;7.17;;;;;;;;;;5049914;28;20060;-61
2022/09/13 03:21:13;;;;;;;;;;;;;;;;;;5034728;28;19909;-62
2022/09/13 03:23:39;;;;;;;;;;;;;;;;;;5035242;28;19963;-62
2022/09/13 03:26:06;;;;;;;;;;;;;;;;;;5034866;28;20273;-63
2022/09/13 03:28:32;;;;;;;;;;;;;;;;;;5034328;28;19905;-63
2022/09/13 03:30:58;;;;;;;;;;;;;;;;;;5034719;28;19913;-63
2022/09/13 03:33:24;;;;;;;;;;;;;;;;;;5034511;28;20016;-63
2022/09/13 03:35:49;;;;;;;;;;;;;;;;;;5034295;28;19953;-63
2022/09/13 03:38:15;;;;;;;;;;;;;;;;;;5016847;28;19909;-63
2022/09/13 03:40:41;;;;;;;;;;;;;;;;;;5034940;28;19912;-63
2022/09/13 03:43:08;;;;;;;;;;;;;;;;;;5034585;28;19905;-63
2022/09/13 03:45:34;;;;;;;;;;;;;;;;;;5034509;28;20361;-63
2022/09/13 03:48:00;;;;;;;;;;;;;;;;;;5034187;28;20348;-63
2022/09/13 03:50:27;;;;;;;18.75;8.25;;;;;;;;;;5033926;28;20007;-63
2022/09/13 03:52:59;;;;;;;17.02;7.78;;;;;;;;;;5033942;28;20025;-63
2022/09/13 03:55:25;;;;;;;20.20;9.00;;;;;;;;;;5034078;28;20489;-63
2022/09/13 03:57:52;;;;;;;15.88;7.88;;;;;;;;;;5033828;28;20052;-63
2022/09/13 04:00:18;;;;;;;15.10;8.18;;;;;;;;;;5049086;28;20034;-63
2022/09/13 04:02:44;;;;;;;20.60;7.38;;;;;;;;;;5033009;28;20084;-63
2022/09/13 04:05:11;;;;;;;12.95;8.25;;;;;;;;;;5048982;28;20109;-63
2022/09/13 04:07:37;;;;;;;19.67;8.35;;;;;;;;;;5033657;28;20470;-63
2022/09/13 04:10:03;;;;;;;19.65;7.72;;;;;;;;;;5033737;28;20073;-63
2022/09/13 04:12:30;;;;;;;15.77;8.05;;;;;;;;;;5048960;28;20117;-63
2022/09/13 04:14:56;;;;;;;17.00;8.27;;;;;;;;;;5033554;28;20045;-64
2022/09/13 04:17:22;;;;;;;17.45;7.40;;;;;;;;;;5048832;28;20018;-64
2022/09/13 04:19:48;;;;;;;15.30;7.47;;;;;;;;;;5033466;28;20033;-64
2022/09/13 04:22:14;;;;;;;13.35;7.60;;;;;;;;;;5032659;28;20083;-64
2022/09/13 04:24:42;;;;;;;11.60;7.38;;;;;;;;;;5032856;28;20096;-64
2022/09/13 04:27:08;;;;;;;16.73;8.13;;;;;;;;;;5033325;28;20022;-64
2022/09/13 04:29:34;;;;;;;16.10;8.15;;;;;;;;;;5033262;28;20175;-64
2022/09/13 04:32:01;;;;;;;12.60;8.00;;;;;;;;;;5033305;28;19928;-64
2022/09/13 04:34:27;;;;;;;11.57;7.55;;;;;;;;;;5033227;28;20058;-64
2022/09/13 04:36:53;;;;;;;14.90;7.68;;;;;;;;;;5033265;28;20029;-64
2022/09/13 04:39:20;;;;;;;12.40;7.70;;;;;;;;;;5033179;28;20029;-64
2022/09/13 04:41:47;;;;;;;11.30;8.13;;;;;;;;;;5033187;28;20017;-64
2022/09/13 04:44:15;;;;;;;16.50;8.30;;;;;;;;;;5033190;28;20071;-63
2022/09/13 04:46:41;;;;;;;18.10;8.55;;;;;;;;;;5033138;28;19905;-63
2022/09/13 04:49:09;;;;;;;17.10;8.70;;;;;;;;;;5033119;28;20029;-63
2022/09/13 04:51:35;;;;;;;19.00;9.47;;;;;;;;;;5033112;28;20100;-63
2022/09/13 04:54:01;;;;;;;;;;;;;;;;;;5033229;28;20501;-63
2022/09/13 04:56:27;;;;;;;;;;;;;;;;;;5033099;28;19909;-63
2022/09/13 04:58:53;;;;;;;;;;;;;;;;;;5033411;28;19911;-62
2022/09/13 05:01:20;;;;;;;19.02;8.38;;;;;;;;;;5033334;28;19928;-62
2022/09/13 05:03:46;;;;;;;19.15;8.38;;;;;;;;;;5032608;28;20021;-63
2022/09/13 05:06:14;;;;;;;14.95;8.07;;;;;;;;;;5032868;28;20036;-63
2022/09/13 05:08:40;;;;;;;14.60;8.68;;;;;;;;;;5032799;28;20025;-63
2022/09/13 05:11:07;;;;;;;20.77;8.82;;;;;;;;;;5032782;28;20037;-63
2022/09/13 05:13:33;;;;;;;13.93;8.45;;;;;;;;;;5047269;28;20449;-63
2022/09/13 05:16:04;;;;;;;13.87;9.00;;;;;;;;;;5036281;28;20037;-62
2022/09/13 05:18:32;;;;;;;14.00;8.40;;;;;;;;;;5036639;28;20382;-63
2022/09/13 05:20:58;;;;;;;17.43;10.10;;;;;;;;;;5036808;28;20193;-62
2022/09/13 05:23:25;;;;;;;22.73;11.85;;;;;;;;;;5052054;28;20075;-63
2022/09/13 05:25:55;;;;;;;18.00;12.20;;;;;;;;;;5051848;28;20057;-63
2022/09/13 05:28:22;;;;;;;21.48;11.63;;;;;;;;;;5036641;28;20530;-63
2022/09/13 05:31:02;;;;;;;22.85;10.50;;;;;;;;;;5036480;28;20160;-63
2022/09/13 05:33:29;;;;;;;18.48;10.27;;;;;;;;;;5036437;28;20065;-63
2022/09/13 05:35:55;;;;;;;17.95;10.80;;;;;;;;;;5036294;28;20029;-63
2022/09/13 05:38:22;;;;;;;19.30;10.55;;;;;;;;;;5036259;28;20105;-63
2022/09/13 05:40:55;;;;;;;16.40;9.55;;;;;;;;;;5035821;28;20029;-63
2022/09/13 05:43:21;;;;;;;18.60;10.48;;;;;;;;;;5036467;28;20065;-63
2022/09/13 05:46:01;;;;;;;18.83;11.00;;;;;;;;;;5036175;28;20170;-63
2022/09/13 05:48:28;;;;;;;15.60;10.90;;;;;;;;;;5036254;28;20022;-64
2022/09/13 05:50:54;;;;;;;17.10;10.80;;;;;;;;;;5036046;28;20120;-62
2022/09/13 05:53:20;;;;;;;17.83;10.02;;;;;;;;;;5036080;28;20369;-63
2022/09/13 05:55:46;;;;;;;14.68;8.35;;;;;;;;;;5036012;28;20021;-62
2022/09/13 05:58:13;;;;;;;13.75;8.05;;;;;;;;;;5051345;28;20025;-62
2022/09/13 06:00:38;;;;;;;;;;;;;;;;;;5051454;28;20029;-62
2022/09/13 06:03:05;;;;;;;14.20;7.72;;;;;;;;;;5018006;28;20425;-62
2022/09/13 06:05:31;;;;;;;17.45;7.78;;;;;;;;;;5035713;28;20022;-62
2022/09/13 06:07:57;;;;;;;13.05;7.60;;;;;;;;;;5035872;28;20021;-62
2022/09/13 06:10:24;;;;;;;13.55;7.85;;;;;;;;;;5035771;28;20233;-63
2022/09/13 06:12:50;;;;;;;14.20;7.30;;;;;;;;;;5035552;28;20079;-62
2022/09/13 06:15:16;;;;;;;18.57;7.60;;;;;;;;;;5035743;28;19917;-63
2022/09/13 06:17:42;;;;;;;16.30;7.00;;;;;;;;;;5035921;28;20516;-63
2022/09/13 06:20:09;;;;;;;11.67;6.50;;;;;;;;;;5035481;28;20074;-63
2022/09/13 06:22:35;;;;;;;12.05;6.28;;;;;;;;;;5050721;28;20316;-62
2022/09/13 06:25:02;;;;;;;16.35;7.65;;;;;;;;;;5035519;28;20044;-62
2022/09/13 06:27:31;;;;;;;11.55;6.75;;;;;;;;;;5034350;28;20386;-62
2022/09/13 06:29:57;;;;;;;12.13;6.53;;;;;;;;;;5035462;28;20041;-63
2022/09/13 06:32:23;;;;;;;15.45;7.55;;;;;;;;;;5035586;28;20463;-62
2022/09/13 06:34:49;;;;;;;17.40;9.00;;;16.00;99.90;;;;;;5035800;28;19912;-62
2022/09/13 06:37:15;;;;;;;11.98;7.35;;;16.20;99.90;;;;;;5035039;28;20037;-62
2022/09/13 06:39:41;;;;;;;13.93;7.63;;;16.10;99.90;;;;;;5034692;28;20038;-62
2022/09/13 06:42:07;;;;;;;18.00;8.18;;;16.20;99.90;;;;;;5017534;28;20133;-62
2022/09/13 06:44:33;;;;;;;13.93;7.18;;;;;;;;;;5035254;28;20037;-62
2022/09/13 06:46:59;;;;;;;13.70;7.05;;;;;;;;;;5035122;28;20022;-64
2022/09/13 06:49:28;;;;;;;13.30;6.95;;;;;;;;;;5050090;28;20025;-62
2022/09/13 06:51:54;;;;;;;10.07;6.88;;;;;;;;;;5050296;28;20021;-62
2022/09/13 06:54:20;;;;;;;11.93;6.40;;;;;;;;;;5034704;28;20029;-62
2022/09/13 06:56:46;;;;;;;12.90;7.40;;;;;;;;;;5034214;28;20502;-62
2022/09/13 06:59:12;;;;;;;;;;;;;;;;;;5050635;28;19905;-61
2022/09/13 07:01:38;;;;;;;;;;;;;;;;;;5035406;28;19916;-61
2022/09/13 07:04:04;;;;;;;;;;;;;;;;;;5035294;28;19909;-61
2022/09/13 07:06:31;;;;;;;;;;;16.10;99.90;;;;;;5035187;28;20310;-61
2022/09/13 07:08:58;;;;;;;;;;;17.20;99.90;;;;;;5017293;28;19995;-61
2022/09/13 07:11:25;;;;;;;;;;;17.20;99.90;;;;;;5032409;28;19940;-61
2022/09/13 07:13:51;;;;;;;;;;;17.30;99.90;;;;;;5034358;28;19916;-61
2022/09/13 07:16:17;;;;;;;;;;;17.40;99.90;;;;;;5034280;28;20315;-61
2022/09/13 07:18:44;;;;;;;;;;;17.50;99.90;;;;;;5033475;28;19905;-61
2022/09/13 07:21:10;;;;;;;;;;;17.70;99.90;;;;;;5034716;28;20346;-62
2022/09/13 07:23:36;;;;;;;;;;;17.80;99.90;;;;;;5034300;28;19913;-62
2022/09/13 07:26:04;;;;;;;;;;;18.00;99.90;;;;;;5034391;28;19905;-62
2022/09/13 07:28:40;;;;;;;;;;;18.00;99.90;;;;;;5034445;28;19905;-62
2022/09/13 07:31:13;;;;;;;;;;;18.10;99.90;;;;;;5034550;28;19926;-62
2022/09/13 07:33:40;;;;;;;;;;;18.20;99.90;;;;;;5033984;28;20500;-62
2022/09/13 07:36:06;;;;;;;;;;;18.40;99.90;;;;;;5034399;28;20459;-62
2022/09/13 07:38:33;;;;;;;;;;;18.40;99.90;;;;;;5033768;28;20569;-62
2022/09/13 07:40:58;;;;;;;;;;;18.60;99.90;;;;;;5033425;28;19912;-62
2022/09/13 07:43:24;;;;;;;;;;;18.80;99.90;;;;;;5032852;28;19909;-62
2022/09/13 07:46:00;;;;;;;;;;;18.90;99.90;;;;;;5032535;28;19984;-62
2022/09/13 07:48:26;;;;;;;;;;;19.10;99.90;;;;;;5033744;28;19905;-62
2022/09/13 07:50:58;;;;;;;;;;;19.10;99.90;;;;;;5033966;28;19916;-63
2022/09/13 07:53:24;;;;;;;;;;;19.20;99.90;;;;;;5034162;28;19905;-62
2022/09/13 07:55:49;;;;;;;;;;;19.20;99.90;;;;;;5033809;28;19996;-63
2022/09/13 07:58:15;;;;;;;;;;;19.40;99.90;;;;;;5034233;28;20003;-62
2022/09/13 08:00:41;;;;;;;;;;;19.60;99.90;;;;;;5033197;28;19904;-63
2022/09/13 08:03:06;;;;;;;;;;;19.70;99.90;;;;;;5034263;28;19909;-62
2022/09/13 08:05:37;;;;;;;;;;;19.50;99.90;;;;;;5034150;28;19932;-63
2022/09/13 08:08:12;;;;;;;;;;;19.60;99.90;;;;;;5034429;28;19909;-62
2022/09/13 08:10:37;;;;;;;;;;;19.70;99.90;;;;;;5034053;28;20035;-63
2022/09/13 08:13:03;;;;;;;;;;;20.10;99.90;;;;;;5032490;28;19996;-66
2022/09/13 08:15:29;;;;;;;;;;;20.10;99.90;;;;;;5033962;28;19905;-63
2022/09/13 08:17:54;;;;;;;;;;;20.20;99.90;;;;;;5033789;28;19909;-65
2022/09/13 08:20:21;;;;;;;;;;;20.30;99.90;;;;;;5033918;28;19905;-65
2022/09/13 08:22:47;;;;;;;;;;;20.40;99.90;;;;;;5033622;28;20305;-70
2022/09/13 08:25:13;;;;;;;;;;;20.50;99.90;;;;;;5032514;28;19958;-67
2022/09/13 08:27:38;;;;;;;;;;;20.60;99.90;;;;;;5032567;28;20000;-67
2022/09/13 08:30:04;;;;;;;;;;;20.70;99.90;;;;;;5033574;28;20401;-68
2022/09/13 08:32:30;;;;;;;;;;;20.90;99.90;;;;;;5033749;28;19905;-65
2022/09/13 08:34:56;;;;;;;;;;;21.00;99.90;;;;;;5034026;28;20403;-67
2022/09/13 08:37:22;;;;;;;;;;;21.30;99.90;;;;;;5033427;28;19912;-69
2022/09/13 08:39:48;;;;;;;;;;;21.40;99.90;;;;;;5033963;28;19905;-68
2022/09/13 08:42:19;;;;;;;;;;;21.60;99.90;;;;;;5033920;28;19909;-70
2022/09/13 08:44:46;;;;;;;;;;;21.70;99.90;;;;;;5033588;28;19912;-69
2022/09/13 08:47:14;;;;;;;;;;;21.80;99.90;;;;;;5033404;28;19940;-67
2022/09/13 08:49:43;;;;;;;;;;;22.00;99.90;;;;;;5032823;28;19917;-70
2022/09/13 08:52:11;;;;;;;;;;;22.10;99.90;;;;;;5032176;28;20373;-71
2022/09/13 08:54:37;;;;;;;;;;;22.10;99.90;;;;;;5032095;28;19912;-66
2022/09/13 08:57:10;;;;;;;;;;;22.20;99.90;;;;;;5033351;28;19905;-70
2022/09/13 08:59:54;;;;;;;;;;;22.20;99.90;;;;;;5033755;28;19988;-70
2022/09/13 09:02:28;;;;;;;;;;;22.40;99.90;;;;;;5031964;28;19905;-69
2022/09/13 09:05:03;;;;;;;;;;;22.40;99.90;;;;;;5033155;28;19905;-71
2022/09/13 09:07:36;;;;;;;;;;;22.50;99.90;;;;;;5031728;28;19905;-63
2022/09/13 09:10:22;;;;;;;;;;;22.60;99.90;;;;;;5032499;28;20289;-62
2022/09/13 09:12:48;;;;;;;;;;;22.80;99.90;;;;;;5033153;28;20354;-67
2022/09/13 09:15:24;;;;;;;;;;;22.90;99.90;;;;;;5032726;28;19923;-67
2022/09/13 09:18:08;;;;;;;;;;;23.00;99.90;;;;;;5033123;28;19912;-66
2022/09/13 09:20:39;;;;;;;;;;;23.10;99.90;;;;;;5032745;28;19984;-63
2022/09/13 09:23:25;;;;;;;;;;;23.40;99.90;;;;;;5033065;28;20374;-66
2022/09/13 09:26:12;;;;;;;;;;;23.50;99.90;;;;;;5032664;28;19912;-63
2022/09/13 09:28:37;;;;;;;;;;;23.00;99.90;;;;;;5033140;28;19909;-64
2022/09/13 09:31:07;;;;;;;;;;;23.00;99.90;;;;;;5032959;28;19919;-67
2022/09/13 09:33:33;;;;;;;;;;;23.20;99.90;;;;;;5032758;28;20525;-67
2022/09/13 09:36:10;;;;;;;;;;;23.40;99.90;;;;;;5032898;28;19955;-70
2022/09/13 09:38:40;;;;;;;;;;;23.50;99.90;;;;;;5032738;28;19912;-68
2022/09/13 09:41:12;;;;;;;;;;;23.70;99.90;;;;;;5032815;28;19913;-70
2022/09/13 09:43:41;;;;;;;;;;;23.70;99.90;;;;;;5033061;28;19976;-67
2022/09/13 09:46:08;;;;;;;;;;;23.70;99.90;;;;;;5032776;28;19905;-69
2022/09/13 09:48:43;;;;;;;;;;;23.90;99.90;;;;;;5015176;28;19909;-73
2022/09/13 09:51:10;;;;;;;;;;;24.10;99.90;;;;;;5032762;28;19975;-70
2022/09/13 09:53:40;;;;;;;;;;;24.20;99.90;;;;;;5032915;28;19905;-68
2022/09/13 09:56:23;;;;;;;;;;;24.30;99.90;;;;;;5032954;28;19905;-69
2022/09/13 09:58:49;;;;;;;;;;;24.40;99.90;;;;;;5014743;28;20281;-69
2022/09/13 10:01:20;;;;;;;;;;;24.50;99.90;;;;;;5014399;28;19917;-71
2022/09/13 10:03:50;;;;;;;;;;;24.60;99.90;;;;;;5018041;28;20001;-71
2022/09/13 10:06:21;;;;;;;;;;;24.90;99.90;;;;;;5036579;28;20360;-73
2022/09/13 10:08:59;;;;;;;;;;;24.90;99.90;;;;;;5018508;28;20326;-69
2022/09/13 10:11:45;;;;;;;;;;;25.00;99.90;;;;;;5036576;28;19975;-72
2022/09/13 10:14:47;;;;;;;;;;;25.20;99.90;;;;;;5036040;28;20092;-71
2022/09/13 10:17:17;;;;;;;;;;;25.40;99.90;;;;;;4994295;28;19921;-72
2022/09/13 10:19:54;;;;;;;;;;;25.70;99.90;;;;;;4994357;28;19910;-70
2022/09/13 10:22:21;;;;;;;;;;;26.00;99.90;;;;;;4994302;28;20012;-71
2022/09/13 10:24:47;;;;;;;;;;;27.00;99.90;;;;;;4994068;28;19988;-71
2022/09/13 10:27:21;;;;;;;;;;;26.60;99.90;;;;;;4994050;28;19978;-72
2022/09/13 10:29:49;;;;;;;;;;;26.60;99.40;;;;;;4993868;28;19925;-71
2022/09/13 10:32:18;;;;;;;;;;;26.90;99.90;;;;;;4994034;28;19918;-70
2022/09/13 10:34:45;;;;;;;;;;;26.60;99.20;;;;;;4994115;28;19905;-70
2022/09/13 10:40:38;;;;;;;;;;;28.50;98.80;;;;;;4994014;28;19928;-69
2022/09/13 10:43:06;;;;;;;;;;;28.60;98.60;;;;;;4988404;28;19906;-71
2022/09/13 10:45:33;;;;;;;;;;;29.10;96.10;;;;;;4993424;28;19912;-69
2022/09/13 10:48:11;;;;;;;;;;;29.40;94.20;;;;;;4992054;28;20675;-70
2022/09/13 10:50:37;;;;;;;;;;;30.10;94.30;;;;;;5003621;28;19921;-71
2022/09/13 10:53:04;;;;;;;;;;;31.00;92.20;;;;;;5050891;28;20407;-71
2022/09/13 10:55:42;;;;;;;;;;;31.10;91.20;;;;;;5035134;28;20028;-72
2022/09/13 10:58:08;;;;;;;;;;;31.80;89.70;;;;;;5035532;28;19917;-70
2022/09/13 11:00:34;;;;;;;;;;;;;;;;;;5035299;28;20279;-67
2022/09/13 11:03:19;;;;;;;;;;;33.00;83.00;;;;;;5050624;28;19911;-72
2022/09/13 11:05:47;;;;;;;;;;;32.50;84.20;;;;;;5035579;28;19909;-71
2022/09/13 11:08:13;;;;;;;;;;;;;;;;;;5035128;28;20003;-69
2022/09/13 11:10:47;;;;;;;;;;;34.20;76.50;;;;;;5050378;28;20531;-71
2022/09/13 11:13:17;;;;;;;;;;;33.90;74.30;;;;;;5034044;28;20121;-71
2022/09/13 11:15:50;;;;;;;;;;;34.40;73.90;;;;;;5033497;28;19905;-71
2022/09/13 11:18:26;;;;;;;;;;;34.40;75.90;;;;;;5035418;28;20257;-71
2022/09/13 11:21:06;;;;;;;;;;;35.30;74.70;;;;;;5035014;28;19905;-72
2022/09/13 11:23:40;;;;;;;;;;;35.00;73.30;;;;;;5034998;28;19931;-72
2022/09/13 11:26:09;;;;;;;;;;;33.90;72.20;;;;;;5035207;28;19909;-71
2022/09/13 11:28:37;;;;;;;;;;;34.40;70.20;;;;;;5049601;28;19955;-71
2022/09/13 11:31:06;;;;;;;;;;;35.80;67.60;;;;;;5034603;28;19967;-73
2022/09/13 11:33:41;;;;;;;;;;;36.10;66.60;;;;;;5034650;28;19979;-70
2022/09/13 11:36:16;;;;;;;;;;;36.20;68.70;;;;;;5034633;28;20200;-72
2022/09/13 11:38:51;;;;;;;;;;;36.10;65.40;;;;;;5034642;28;19912;-72
2022/09/13 11:41:27;;;;;;;;;;;36.00;67.10;;;;;;5034577;28;19905;-72
2022/09/13 11:43:58;;;;;;;;;;;35.10;67.60;;;;;;5034472;28;19905;-73
2022/09/13 11:46:29;;;;;;;;;;;35.70;66.70;;;;;;5034302;28;19913;-72
2022/09/13 11:49:01;;;;;;;;;;;36.30;63.80;;;;;;5034281;28;19932;-72
2022/09/13 11:51:26;;;;;;;;;;;36.60;63.90;;;;;;5049514;28;19917;-73
2022/09/13 11:53:52;;;;;;;;;;;36.20;66.80;;;;;;5049284;28;19916;-71
2022/09/13 11:56:21;;;;;;;;;;;37.30;63.80;;;;;;5034220;28;19904;-71
2022/09/13 11:58:47;;;;;;;;;;;38.30;61.50;;;;;;5034249;28;20052;-71
2022/09/13 12:01:16;;;;;;;;;;;37.80;63.60;;;;;;5034068;28;20011;-71
2022/09/13 12:03:58;;;;;;;;;;;37.80;60.70;;;;;;5034515;28;20248;-71
2022/09/13 12:06:27;;;;;;;;;;;38.30;61.10;;;;;;5034405;28;20270;-72
2022/09/13 12:08:56;;;;;;;;;;;37.90;59.90;;;;;;5034120;28;20335;-71
2022/09/13 12:11:33;;;;;;;;;;;39.00;59.90;;;;;;5033718;28;20309;-71
2022/09/13 12:14:02;;;;;;;;;;;39.30;58.70;;;;;;5033944;28;19917;-72
2022/09/13 12:16:28;;;;;;;;;;;;;;;;;;5033880;28;20477;-72
2022/09/13 12:18:56;;;;;;;;;;;39.50;58.70;;;;;;5033599;28;19952;-71
2022/09/13 12:21:30;;;;;;;;;;;39.50;59.70;;;;;;5016056;28;19955;-72
2022/09/13 12:23:59;;;;;;;;;;;40.20;57.70;;;;;;5015344;28;19988;-71
2022/09/13 12:26:44;;;;;;;;;;;40.20;58.40;;;;;;5033741;28;19909;-71
2022/09/13 12:29:09;;;;;;;;;;;;;;;;;;5033717;28;19960;-72
2022/09/13 12:31:35;;;;;;;;;;;;;;;;;;5033460;28;20028;-71
2022/09/13 12:34:04;;;;;;;;;;;37.70;56.20;;;;;;5049024;28;19920;-72
2022/09/13 12:36:36;;;;;;;;;;;36.10;58.60;;;;;;5033655;28;20365;-72
2022/09/13 12:39:02;;;;;;;;;;;;;;;;;;5048915;28;20003;-72
2022/09/13 12:41:42;;;;;;;;;;;38.50;57.30;;;;;;5033324;28;19945;-70
2022/09/13 12:44:20;;;;;;;;;;;38.80;58.10;;;;;;5033571;28;19916;-70
2022/09/13 12:46:46;;;;;;;;;;;38.70;58.20;;;;;;5033530;28;19905;-71
2022/09/13 12:49:26;;;;;;;;;;;38.50;57.70;;;;;;5033464;28;19905;-71
2022/09/13 12:51:52;;;;;;;;;;;38.20;58.30;;;;;;5033502;28;20110;-73
2022/09/13 12:54:29;;;;;;;;;;;38.40;57.60;;;;;;5033474;28;20007;-71
2022/09/13 12:57:13;;;;;;;;;;;38.80;58.20;;;;;;5033043;28;20273;-72
2022/09/13 12:59:47;;;;;;;;;;;39.50;57.10;;;;;;5048542;28;19905;-71
2022/09/13 13:02:25;;;;;;;;;;;35.50;59.30;;;;;;5033472;28;19987;-71
2022/09/13 13:04:57;;;;;;;;;;;35.40;60.80;;;;;;5048706;28;19905;-71
2022/09/13 13:07:23;;;;;;;;;;;35.00;61.50;;;;;;5033358;28;19905;-72
2022/09/13 13:09:52;;;;;;;;;;;34.50;62.80;;;;;;5033147;28;19920;-71
2022/09/13 13:12:26;;;;;;;;;;;31.80;63.00;;;;;;5033249;28;19905;-71
2022/09/13 13:14:52;;;;;;;;;;;32.10;64.40;;;;;;5015292;28;19948;-71
2022/09/13 13:17:36;;;;;;;;;;;31.20;67.40;;;;;;5033104;28;19941;-71
2022/09/13 13:20:21;;;;;;;;;;;30.90;67.90;;;;;;5033166;28;19909;-71
2022/09/13 13:22:50;;;;;;;;;;;30.10;71.20;;;;;;5033005;28;20350;-71
2022/09/13 13:25:30;;;;;;;;;;;33.50;68.20;;;;;;5033438;28;20007;-71
2022/09/13 13:27:56;;;;;;;;;;;33.90;67.50;;;;;;5033435;28;20007;-71
2022/09/13 13:30:40;;;;;;;;;;;35.10;63.20;;;;;;5033038;28;20354;-72
2022/09/13 13:33:14;;;;;;;;;;;36.80;62.70;;;;;;5033160;28;20012;-72
2022/09/13 13:35:39;;;;;;;;;;;37.80;60.50;;;;;;5034477;28;19951;-72
2022/09/13 13:38:24;;;;;;;;;;;38.10;60.00;;;;;;5036889;28;19909;-71
2022/09/13 13:40:51;;;;;;;;;;;37.40;61.40;;;;;;5036848;28;19905;-72
2022/09/13 13:43:32;;;;;;;;;;;36.90;60.40;;;;;;5036876;28;20004;-72
2022/09/13 13:46:19;;;;;;;;;;;36.30;60.80;;;;;;5037123;28;19913;-71
2022/09/13 13:48:45;;;;;;;;;;;35.80;63.40;;;;;;5026299;28;20277;-71
2022/09/13 13:51:10;;;;;;;;;;;35.90;62.30;;;;;;5036582;28;19913;-71
2022/09/13 13:53:37;;;;;;;;;;;36.30;61.50;;;;;;5036611;28;19996;-72
2022/09/13 13:56:14;;;;;;;;;;;37.00;61.20;;;;;;5018857;28;19912;-73
2022/09/13 13:58:45;;;;;;;;;;;37.40;62.30;;;;;;5018850;28;20007;-71
2022/09/13 14:01:27;;;;;;;;;;;38.50;58.30;;;;;;5036401;28;20369;-72
2022/09/13 14:04:04;;;;;;;;;;;38.00;60.10;;;;;;5018516;28;20354;-72
2022/09/13 14:06:34;;;;;;;;;;;39.10;58.60;;;;;;5036672;28;19920;-72
2022/09/13 14:09:18;;;;;;;;;;;39.30;59.10;;;;;;5036590;28;19916;-69
2022/09/13 14:11:55;;;;;;;;;;;39.20;58.40;;;;;;5051339;28;19913;-71
2022/09/13 14:14:27;;;;;;;;;;;38.20;58.20;;;;;;5014602;28;19918;-71
2022/09/13 14:17:08;;;;;;;;;;;35.30;58.40;;;;;;5016385;28;20394;-71
2022/09/13 14:19:40;;;;;;;;;;;32.90;63.50;;;;;;5016443;28;19909;-71
2022/09/13 14:22:13;;;;;;;;;;;32.80;64.00;;;;;;5016301;28;20263;-71
2022/09/13 14:24:42;;;;;;;;;;;31.80;65.40;;;;;;5015013;28;20266;-71
2022/09/13 14:27:13;;;;;;;;;;;31.00;65.80;;;;;;5016255;28;19909;-72
2022/09/13 14:29:38;;;;;;;;;;;30.50;69.20;;;;;;5014815;28;19905;-71
2022/09/13 14:32:05;;;;;;;;;;;30.30;71.30;;;;;;5015769;28;20366;-71
2022/09/13 14:34:34;;;;;;;;;;;29.60;72.90;;;;;;5016132;28;20393;-70
2022/09/13 14:37:01;;;;;;;;;;;29.40;73.80;;;;;;5014652;28;20322;-71
2022/09/13 14:39:27;;;;;;;;;;;29.00;73.00;;;;;;5016021;28;20349;-70
2022/09/13 14:42:00;;;;;;;;;;;29.60;71.10;;;;;;5016304;28;19910;-71
2022/09/13 14:44:26;;;;;;;;;;;29.00;72.20;;;;;;5015930;28;19915;-71
2022/09/13 14:46:58;;;;;;;;;;;28.80;73.60;;;;;;5015177;28;19910;-70
2022/09/13 14:49:25;;;;;;;;;;;28.60;73.30;;;;;;5015657;28;20274;-71
2022/09/13 14:52:02;;;;;;;;;;;28.20;74.00;;;;;;5015802;28;19913;-70
2022/09/13 14:54:47;;;;;;;;;;;28.10;76.10;;;;;;5015872;28;20391;-70
2022/09/13 14:57:22;;;;;;;;;;;27.90;76.20;;;;;;5015718;28;20000;-70
2022/09/13 14:59:57;;;;;;;;;;;27.80;77.40;;;;;;5014739;28;20328;-71
2022/09/13 15:02:25;;;;;;;;;;;27.80;78.00;;;;;;5015704;28;19909;-70
2022/09/13 15:04:55;;;;;;;;;;;27.60;76.70;;;;;;5015614;28;20261;-71
2022/09/13 15:07:20;;;;;;;;;;;27.70;75.00;;;;;;5015766;28;19909;-72
2022/09/13 15:09:46;;;;;;;;;;;27.70;75.00;;;;;;5014042;28;20313;-71